< Typhoon 196103 1961 Season Typhoon 196105 >
Typhoon 196104 (BETTY)
General InformationTrack Information on Google Maps || Disaster Info.ResourceGoogle EarthGE AnimationAtom FeedGeoJSON
Detalied Best Track (Time Zone = UTC)
Year Month Day Hour Lat. Long. Pressure (hPa) Wind (kt) Class Image Chart
1961 5 21 00 9.0 135.0 1006 0 2 -- Chart
1961 5 21 06 9.2 135.0 1004 0 2 -- Chart
1961 5 21 12 9.6 134.9 1004 0 2 -- Chart
1961 5 21 18 10.0 134.7 1004 0 2 -- Chart
1961 5 22 00 10.2 134.0 1004 0 2 -- Chart
1961 5 22 06 10.8 133.3 990 0 9 -- Chart
1961 5 22 12 11.2 133.2 990 0 9 -- Chart
1961 5 22 18 11.8 132.8 990 0 9 -- Chart
1961 5 23 00 12.2 132.3 985 0 9 -- Chart
1961 5 23 06 12.6 130.9 990 0 9 -- Chart
1961 5 23 12 13.1 129.9 985 0 9 -- Chart
1961 5 23 18 13.8 128.6 980 0 9 -- Chart
1961 5 24 00 14.8 127.2 970 0 9 -- Chart
1961 5 24 06 15.3 126.7 965 0 9 -- Chart
1961 5 24 12 15.8 126.0 965 0 9 -- Chart
1961 5 24 18 16.5 125.2 960 0 9 -- Chart
1961 5 25 00 17.2 124.3 955 0 9 -- Chart
1961 5 25 06 18.2 123.8 950 0 9 -- Chart
1961 5 25 12 18.8 123.2 945 0 9 -- Chart
1961 5 25 18 19.6 122.5 945 0 9 -- Chart
1961 5 26 00 20.7 121.6 947 0 9 -- Chart
1961 5 26 06 21.5 121.5 950 0 9 -- Chart
1961 5 26 12 22.6 121.2 955 0 9 -- Chart
1961 5 26 18 23.1 121.5 980 0 9 -- Chart
1961 5 27 00 25.4 120.7 980 0 9 -- Chart
1961 5 27 06 26.3 121.4 980 0 9 -- Chart
1961 5 27 12 27.8 121.3 990 0 9 -- Chart
1961 5 27 18 30.5 121.3 995 0 9 -- Chart
1961 5 28 00 31.8 122.6 996 0 9 -- Chart
1961 5 28 06 34.0 126.0 994 0 6 -- Chart
1961 5 28 12 37.8 130.9 988 0 6 -- Chart
1961 5 28 18 39.3 134.0 982 0 6 -- Chart
1961 5 29 00 41.0 137.0 980 0 6 -- Chart
1961 5 29 06 42.8 139.2 978 0 6 -- Chart
1961 5 29 12 44.0 142.0 980 0 6 -- Chart
1961 5 29 18 46.9 148.0 976 0 6 -- Chart
1961 5 30 00 47.5 150.0 978 0 6 -- Chart
1961 5 30 06 48.3 151.8 980 0 6 -- Chart
1961 5 30 12 49.0 153.0 980 0 6 -- Chart
1961 5 30 18 49.5 153.3 982 0 6 -- Chart
1961 5 31 00 50.0 154.0 980 0 6 -- Chart
1961 5 31 06 51.0 155.0 984 0 6 -- Chart
1961 5 31 12 50.8 158.2 990 0 6 -- Chart
1961 5 31 18 52.0 162.0 990 0 6 -- Chart
1961 6 1 00 53.5 165.0 992 0 6 -- Chart
1961 6 1 06 54.7 168.0 990 0 6 -- Chart
1961 6 1 12 55.0 171.0 990 0 6 -- Chart
1961 6 1 18 55.1 172.2 990 0 6 -- Chart
1961 6 2 00 55.2 173.4 992 0 6 -- Chart
1961 6 2 06 55.4 174.3 990 0 6 -- Chart
1961 6 2 12 55.6 175.2 992 0 6 -- Chart
1961 6 2 18 55.8 176.1 992 0 6 -- Chart
1961 6 3 00 56.0 177.0 992 0 6 -- Chart
1961 6 3 06 56.2 178.0 992 0 6 -- Chart
1961 6 3 12 56.5 178.8 990 0 6 -- Chart
1961 6 3 18 56.7 179.5 990 0 6 -- Chart
1961 6 4 00 57.0 180.0 990 0 6 -- Chart
1961 6 4 06 57.3 180.2 996 0 6 -- Chart
Japan Meteorological Agency Best Track Data | Correction Date : 1989-06-01
< Typhoon 196103 1961 Season Typhoon 196105 >

Help